Terminal Aerodrome Forecast
Issued by NWS Chicago, IL

Home | Current Version | Previous Version | Text Only | Print | Product List | Glossary On
Versions: 1 2 3 4 5 6 7 8 9 10 11 12 13 14 15 16 17 18 19 20 21 22 23 24
000
FTUS43 KLOT 220253 AAA
TAFRFD
TAF AMD
KRFD 220253Z 2203/2224 17014KT P6SM BKN050 OVC080 WS015/20045KT
     FM220900 18010KT P6SM VCSH SCT020 BKN040
      TEMPO 2212/2216 3SM -RA BR BKN013
     FM221800 34014G24KT 4SM -RA BR SCT008 OVC013
     FM222200 35010G20KT 6SM -SHRA SCT015 BKN045=

USA.gov is the U.S. government's official web portal to all federal, state and local government web resources and services.